Stoughton, Wisconsin
Current Conditions -  °F | °C
As of 7:53 PM on Friday 24 Oct 2014 (Local Time) from KMSN Reporting Station
Overcast Overcast  
Wind Chill: 58°   Ceiling: 3700
Heat Index: 58°   Visibility: 10mi
Dew Point: 50°   Wind: 0mph
Humidity: 75%   Direction: NA
Pressure: 29.93"   Gusts: NA
Location:  42.92°N, 89.22°W
Report Text: KMSN 250053Z 00000KT 10SM OVC037 14/10 A2993 RMK AO2 SLP135 T01440100
Loading
Personal Weather Stations






























Interactive Weather Map
Tropical Storm Tracking
New forecast layout! Learn more

10-Day Weather Forecast

Advertisements
Track Severe Weather on mobile